createdAt,value
2018-12-25T00:00:58.837Z,91.67
2018-12-25T00:01:58.778Z,91.77
2018-12-25T00:02:58.720Z,92.05
2018-12-25T00:03:58.692Z,91.96
2018-12-25T00:04:58.600Z,92.33
2018-12-25T00:05:58.593Z,91.77
2018-12-25T00:06:58.480Z,91.58
2018-12-25T00:07:58.424Z,91.10
2018-12-25T00:08:58.361Z,90.91
2018-12-25T00:09:58.303Z,91.01
2018-12-25T00:10:58.271Z,90.35
2018-12-25T00:11:58.222Z,90.73
2018-12-25T00:12:58.126Z,91.10
2018-12-25T00:13:58.063Z,91.86
2018-12-25T00:14:57.999Z,92.24
2018-12-25T00:15:57.940Z,92.33
2018-12-25T00:16:57.928Z,92.61
2018-12-25T00:17:57.826Z,92.71
2018-12-25T00:19:05.923Z,93.09
2018-12-25T00:19:57.699Z,93.37
2018-12-25T00:20:57.644Z,93.84
2018-12-25T00:21:57.626Z,94.03
2018-12-25T00:22:57.524Z,94.41
2018-12-25T00:23:57.461Z,95.17
2018-12-25T00:24:57.401Z,95.36
2018-12-25T00:25:57.340Z,95.54
2018-12-25T00:26:57.323Z,95.54
2018-12-25T00:27:57.226Z,95.26
2018-12-25T00:28:57.162Z,95.17
2018-12-25T00:29:57.231Z,94.60
2018-12-25T00:30:57.044Z,94.13
2018-12-25T00:31:57.020Z,94.03
2018-12-25T00:32:56.958Z,93.84
2018-12-25T00:33:56.873Z,93.94
2018-12-25T00:34:56.804Z,93.84
2018-12-25T00:35:56.772Z,94.22
2018-12-25T00:36:56.718Z,93.28
2018-12-25T00:37:56.626Z,93.66
2018-12-25T00:38:56.597Z,93.28
2018-12-25T00:39:56.539Z,93.94
2018-12-25T00:40:56.451Z,94.03
2018-12-25T00:41:56.392Z,94.03
2018-12-25T00:42:56.326Z,93.09
2018-12-25T00:43:56.278Z,93.09
2018-12-25T00:44:56.242Z,93.66
2018-12-25T00:45:56.158Z,94.13
2018-12-25T00:46:56.089Z,94.22
2018-12-25T00:47:56.029Z,94.41
2018-12-25T00:48:55.978Z,95.17
2018-12-25T00:49:55.942Z,94.79
2018-12-25T00:50:55.879Z,94.60
2018-12-25T00:51:55.793Z,93.84
2018-12-25T00:52:55.727Z,94.13
2018-12-25T00:53:55.669Z,93.66
2018-12-25T00:54:55.611Z,94.22
2018-12-25T00:55:55.582Z,94.03
2018-12-25T00:56:55.496Z,94.79
2018-12-25T00:57:55.428Z,94.13
2018-12-25T00:58:55.413Z,94.13
2018-12-25T00:59:55.316Z,94.41
2018-12-25T01:00:55.256Z,94.41
2018-12-25T01:01:55.199Z,94.13
2018-12-25T01:02:55.130Z,94.22
2018-12-25T01:03:55.106Z,94.41
2018-12-25T01:04:55.018Z,94.41
2018-12-25T01:05:54.998Z,94.41
2018-12-25T01:06:54.899Z,94.03
2018-12-25T01:07:54.833Z,93.66
2018-12-25T01:08:54.771Z,93.84
2018-12-25T01:09:54.720Z,94.13
2018-12-25T01:10:54.691Z,94.13
2018-12-25T01:11:54.711Z,94.03
2018-12-25T01:12:54.536Z,94.03
2018-12-25T01:13:54.471Z,94.03
2018-12-25T01:14:54.561Z,94.03
2018-12-25T01:15:54.357Z,93.84
2018-12-25T01:16:54.324Z,93.94
2018-12-25T01:17:54.231Z,93.84
2018-12-25T01:18:54.175Z,94.32
2018-12-25T01:19:54.115Z,95.36
2018-12-25T01:20:54.181Z,95.92
2018-12-25T01:21:53.994Z,96.02
2018-12-25T01:22:53.931Z,96.96
2018-12-25T01:23:53.870Z,97.34
2018-12-25T01:24:53.810Z,98.47
2018-12-25T01:25:53.790Z,98.10
2018-12-25T01:26:53.694Z,98.47
2018-12-25T01:27:53.645Z,97.81
2018-12-25T01:28:53.576Z,97.34
2018-12-25T01:29:53.512Z,96.96
2018-12-25T01:30:53.483Z,97.63
2018-12-25T01:31:53.392Z,97.72
2018-12-25T01:32:53.346Z,97.63
2018-12-25T01:33:53.286Z,97.72
2018-12-25T01:34:53.258Z,97.63
2018-12-25T01:35:53.190Z,97.53
2018-12-25T01:36:53.093Z,97.34
2018-12-25T01:37:53.030Z,97.15
2018-12-25T01:38:52.982Z,96.68
2018-12-25T01:39:52.917Z,96.40
2018-12-25T01:40:52.883Z,97.15
2018-12-25T01:41:52.792Z,96.40
2018-12-25T01:42:52.727Z,96.02
2018-12-25T01:43:52.669Z,95.64
2018-12-25T01:44:52.654Z,95.64
2018-12-25T01:45:52.551Z,95.07
2018-12-25T01:46:52.489Z,95.07
2018-12-25T01:47:52.457Z,94.89
2018-12-25T01:48:52.403Z,95.64
2018-12-25T01:49:52.311Z,95.54
2018-12-25T01:50:52.287Z,95.64
2018-12-25T01:51:52.189Z,96.02
2018-12-25T01:52:52.129Z,95.64
2018-12-25T01:53:52.102Z,95.36
2018-12-25T01:54:52.037Z,95.92
2018-12-25T01:55:51.949Z,95.36
2018-12-25T01:56:51.930Z,94.89
2018-12-25T01:57:51.832Z,95.17
2018-12-25T01:58:51.770Z,95.26
2018-12-25T01:59:51.720Z,95.17
2018-12-25T02:00:51.647Z,95.54
2018-12-25T02:01:51.624Z,97.34
2018-12-25T02:02:51.527Z,97.06
2018-12-25T02:03:51.466Z,98.38
2018-12-25T02:04:51.411Z,98.28
2018-12-25T02:05:51.379Z,97.34
2018-12-25T02:06:51.283Z,98.47
2018-12-25T02:07:51.226Z,98.76
2018-12-25T02:08:51.179Z,98.57
2018-12-25T02:09:51.127Z,97.53
2018-12-25T02:10:51.046Z,96.68
2018-12-25T02:11:50.986Z,96.78
2018-12-25T02:12:50.967Z,97.34
2018-12-25T02:13:50.868Z,97.06
2018-12-25T02:14:50.806Z,96.68
2018-12-25T02:15:50.742Z,96.40
2018-12-25T02:16:50.683Z,96.11
2018-12-25T02:17:50.652Z,96.02
2018-12-25T02:18:50.562Z,95.73
2018-12-25T02:19:50.510Z,96.11
2018-12-25T02:20:50.440Z,96.02
2018-12-25T02:21:50.387Z,96.49
2018-12-25T02:22:50.361Z,95.73
2018-12-25T02:23:50.261Z,95.64
2018-12-25T02:24:50.204Z,95.92
2018-12-25T02:25:50.143Z,95.17
2018-12-25T02:26:50.078Z,95.73
2018-12-25T02:27:50.058Z,95.83
2018-12-25T02:28:50.003Z,96.11
2018-12-25T02:29:49.897Z,95.92
2018-12-25T02:30:49.839Z,96.02
2018-12-25T02:31:49.780Z,96.11
2018-12-25T02:32:49.725Z,96.40
2018-12-25T02:33:49.701Z,96.68
2018-12-25T02:34:49.600Z,96.68
2018-12-25T02:35:49.539Z,96.49
2018-12-25T02:36:49.480Z,96.40
2018-12-25T02:37:49.460Z,96.87
2018-12-25T02:38:49.358Z,96.40
2018-12-25T02:39:49.305Z,96.59
2018-12-25T02:40:49.238Z,95.92
2018-12-25T02:41:49.175Z,95.64
2018-12-25T02:42:49.152Z,95.92
2018-12-25T02:43:49.088Z,96.49
2018-12-25T02:44:48.995Z,96.68
2018-12-25T02:45:48.940Z,96.49
2018-12-25T02:46:48.878Z,97.06
2018-12-25T02:47:48.818Z,97.44
2018-12-25T02:48:48.795Z,96.96
2018-12-25T02:49:50.370Z,97.34
2018-12-25T02:50:48.633Z,97.25
2018-12-25T02:51:48.575Z,97.34
2018-12-25T02:52:48.516Z,97.44
2018-12-25T02:53:48.486Z,97.25
2018-12-25T02:54:48.392Z,96.40
2018-12-25T02:55:48.343Z,96.49
2018-12-25T02:56:48.311Z,97.06
2018-12-25T02:57:48.212Z,96.49
2018-12-25T02:58:48.152Z,96.68
2018-12-25T02:59:48.091Z,96.11
2018-12-25T03:00:48.030Z,95.92
2018-12-25T03:01:48.014Z,95.92
2018-12-25T03:02:47.912Z,95.64
2018-12-25T03:03:47.856Z,95.36
2018-12-25T03:04:47.790Z,95.64
2018-12-25T03:05:47.731Z,95.54
2018-12-25T03:06:47.699Z,95.54
2018-12-25T03:07:47.618Z,95.17
2018-12-25T03:08:47.547Z,95.26
2018-12-25T03:09:47.492Z,95.54
2018-12-25T03:10:47.459Z,95.92
2018-12-25T03:11:47.369Z,95.54
2018-12-25T03:12:47.312Z,94.79
2018-12-25T03:13:47.246Z,95.54
2018-12-25T03:14:47.186Z,94.89
2018-12-25T03:15:47.156Z,94.70
2018-12-25T03:16:47.116Z,94.60
2018-12-25T03:17:47.010Z,94.70
2018-12-25T03:18:46.963Z,95.07
2018-12-25T03:19:46.891Z,95.36
2018-12-25T03:20:46.829Z,94.89
2018-12-25T03:21:46.805Z,94.51
2018-12-25T03:22:46.709Z,94.32
2018-12-25T03:23:46.650Z,94.60
2018-12-25T03:24:46.586Z,94.32
2018-12-25T03:25:46.523Z,93.37
2018-12-25T03:26:46.495Z,93.66
2018-12-25T03:27:46.408Z,92.99
2018-12-25T03:28:46.345Z,92.61
2018-12-25T03:29:46.284Z,93.66
2018-12-25T03:30:46.224Z,93.37
2018-12-25T03:31:46.203Z,93.09
2018-12-25T03:32:46.108Z,92.99
2018-12-25T03:33:46.042Z,93.18
2018-12-25T03:34:45.979Z,93.18
2018-12-25T03:35:45.921Z,93.18
2018-12-25T03:36:45.904Z,93.75
2018-12-25T03:37:45.800Z,93.66
2018-12-25T03:38:45.741Z,93.47
2018-12-25T03:39:45.681Z,93.37
2018-12-25T03:40:45.618Z,94.13
2018-12-25T03:41:45.591Z,94.13
2018-12-25T03:42:45.532Z,94.03
2018-12-25T03:43:45.592Z,94.03
2018-12-25T03:44:45.376Z,94.41
2018-12-25T03:45:45.318Z,94.22
2018-12-25T03:46:45.258Z,94.32
2018-12-25T03:47:45.201Z,94.32
2018-12-25T03:48:45.168Z,94.41
2018-12-25T03:49:45.076Z,94.51
2018-12-25T03:50:45.022Z,94.60
2018-12-25T03:51:44.957Z,94.60
2018-12-25T03:52:44.941Z,94.70
2018-12-25T03:53:44.837Z,94.51
2018-12-25T03:54:44.779Z,94.51
2018-12-25T03:55:44.728Z,95.54
2018-12-25T03:56:44.655Z,96.11
2018-12-25T03:57:44.633Z,96.02
2018-12-25T03:58:44.537Z,95.54
2018-12-25T03:59:44.477Z,95.64
2018-12-25T04:00:44.412Z,95.92
2018-12-25T04:01:44.355Z,96.40
2018-12-25T04:02:44.334Z,96.40
2018-12-25T04:03:44.235Z,96.68
2018-12-25T04:04:44.175Z,96.68
2018-12-25T04:05:44.110Z,96.49
2018-12-25T04:06:44.053Z,96.68
2018-12-25T04:07:44.021Z,96.87
2018-12-25T04:08:43.966Z,97.25
2018-12-25T04:09:43.875Z,97.34
2018-12-25T04:10:43.814Z,97.53
2018-12-25T04:11:43.751Z,96.96
2018-12-25T04:12:43.691Z,97.15
2018-12-25T04:13:43.664Z,96.59
2018-12-25T04:14:43.577Z,96.02
2018-12-25T04:15:43.514Z,96.49
2018-12-25T04:16:43.451Z,96.21
2018-12-25T04:17:43.390Z,95.64
2018-12-25T04:18:43.362Z,95.36
2018-12-25T04:19:43.375Z,95.73
2018-12-25T04:20:43.246Z,95.92
2018-12-25T04:21:43.152Z,96.59
2018-12-25T04:22:43.093Z,96.40
2018-12-25T04:23:43.080Z,97.25
2018-12-25T04:24:42.975Z,96.49
2018-12-25T04:25:42.911Z,96.40
2018-12-25T04:26:42.854Z,96.49
2018-12-25T04:27:42.795Z,96.68
2018-12-25T04:28:42.834Z,96.68
2018-12-25T04:29:42.675Z,96.40
2018-12-25T04:30:42.612Z,97.34
2018-12-25T04:31:42.552Z,97.34
2018-12-25T04:32:42.490Z,97.34
2018-12-25T04:33:42.463Z,96.49
2018-12-25T04:34:42.369Z,96.49
2018-12-25T04:35:42.312Z,97.34
2018-12-25T04:36:42.248Z,97.34
2018-12-25T04:37:42.187Z,96.40
2018-12-25T04:38:42.170Z,95.73
2018-12-25T04:39:42.069Z,96.21
2018-12-25T04:40:42.009Z,95.64
2018-12-25T04:41:41.946Z,95.73
2018-12-25T04:42:41.886Z,95.83
2018-12-25T04:43:41.860Z,95.92
2018-12-25T04:44:41.769Z,95.83
2018-12-25T04:45:41.708Z,95.92
2018-12-25T04:46:41.649Z,96.11
2018-12-25T04:47:41.590Z,96.40
2018-12-25T04:48:41.560Z,96.68
2018-12-25T04:49:41.471Z,95.73
2018-12-25T04:50:41.412Z,95.17
2018-12-25T04:51:41.356Z,95.92
2018-12-25T04:52:41.284Z,95.83
2018-12-25T04:53:41.273Z,95.64
2018-12-25T04:54:41.168Z,95.45
2018-12-25T04:55:41.107Z,95.26
2018-12-25T04:56:41.081Z,95.36
2018-12-25T04:57:40.988Z,95.17
2018-12-25T04:58:40.926Z,95.36
2018-12-25T04:59:40.867Z,95.26
2018-12-25T05:00:40.810Z,95.17
2018-12-25T05:01:40.779Z,94.98
2018-12-25T05:02:40.692Z,95.31
2018-12-25T05:03:40.628Z,95.36
2018-12-25T05:04:40.568Z,95.83
2018-12-25T05:05:40.507Z,96.40
2018-12-25T05:06:40.481Z,96.02
2018-12-25T05:07:40.422Z,96.49
2018-12-25T05:08:40.326Z,97.20
2018-12-25T05:09:40.272Z,97.20
2018-12-25T05:10:40.209Z,97.25
2018-12-25T05:11:40.178Z,96.40
2018-12-25T05:12:40.086Z,96.64
2018-12-25T05:13:40.026Z,95.88
2018-12-25T05:14:39.967Z,95.73
2018-12-25T05:15:39.949Z,95.26
2018-12-25T05:16:39.844Z,94.93
2018-12-25T05:17:39.795Z,95.40
2018-12-25T05:18:39.726Z,95.97
2018-12-25T05:19:39.666Z,95.88
2018-12-25T05:20:39.648Z,95.26
2018-12-25T05:21:39.547Z,95.97
2018-12-25T05:22:39.486Z,96.02
2018-12-25T05:23:39.427Z,96.07
2018-12-25T05:24:39.374Z,96.02
2018-12-25T05:25:39.336Z,95.92
2018-12-25T05:26:39.250Z,96.49
2018-12-25T05:27:39.337Z,96.49
2018-12-25T05:28:39.132Z,96.49
2018-12-25T05:29:39.068Z,96.83
2018-12-25T05:30:39.012Z,96.49
2018-12-25T05:31:38.948Z,97.30
2018-12-25T05:32:38.917Z,97.49
2018-12-25T05:33:38.826Z,97.06
2018-12-25T05:34:38.769Z,96.59
2018-12-25T05:35:38.711Z,95.64
2018-12-25T05:36:38.679Z,95.69
2018-12-25T05:37:38.591Z,95.83
2018-12-25T05:38:38.560Z,95.07
2018-12-25T05:39:38.469Z,95.03
2018-12-25T05:40:38.407Z,94.84
2018-12-25T05:41:38.350Z,95.69
2018-12-25T05:42:38.288Z,95.54
2018-12-25T05:43:38.261Z,95.59
2018-12-25T05:44:38.170Z,95.92
2018-12-25T05:45:38.111Z,96.02
2018-12-25T05:46:38.054Z,96.21
2018-12-25T05:47:37.996Z,97.30
2018-12-25T05:48:37.965Z,96.64
2018-12-25T05:49:37.874Z,96.59
2018-12-25T05:50:37.810Z,95.73
2018-12-25T05:51:37.753Z,95.59
2018-12-25T05:52:37.694Z,95.97
2018-12-25T05:53:37.664Z,95.78
2018-12-25T05:54:37.577Z,95.17
2018-12-25T05:55:37.516Z,95.03
2018-12-25T05:56:37.449Z,94.37
2018-12-25T05:57:37.420Z,94.46
2018-12-25T05:58:37.331Z,94.27
2018-12-25T05:59:37.280Z,94.08
2018-12-25T06:00:37.251Z,93.04
2018-12-25T06:01:37.152Z,93.51
2018-12-25T06:02:37.097Z,93.13
2018-12-25T06:03:37.034Z,92.94
2018-12-25T06:04:36.969Z,93.32
2018-12-25T06:05:36.945Z,93.61
2018-12-25T06:06:36.852Z,93.32
2018-12-25T06:07:36.792Z,93.51
2018-12-25T06:08:36.731Z,93.32
2018-12-25T06:09:36.707Z,93.61
2018-12-25T06:10:36.616Z,93.70
2018-12-25T06:11:36.552Z,93.51
2018-12-25T06:12:36.495Z,94.93
2018-12-25T06:13:36.438Z,96.16
2018-12-25T06:14:36.408Z,96.16
2018-12-25T06:15:36.313Z,96.64
2018-12-25T06:16:36.251Z,95.97
2018-12-25T06:17:36.226Z,95.97
2018-12-25T06:18:36.141Z,96.07
2018-12-25T06:19:36.074Z,96.54
2018-12-25T06:20:36.054Z,96.54
2018-12-25T06:21:35.956Z,96.54
2018-12-25T06:22:35.898Z,95.59
2018-12-25T06:23:35.840Z,95.59
2018-12-25T06:24:35.777Z,94.84
2018-12-25T06:25:35.753Z,95.78
2018-12-25T06:26:35.654Z,95.88
2018-12-25T06:27:35.593Z,96.64
2018-12-25T06:28:35.568Z,96.64
2018-12-25T06:29:35.479Z,95.97
2018-12-25T06:30:35.416Z,95.78
2018-12-25T06:31:35.356Z,95.40
2018-12-25T06:32:35.295Z,95.21
2018-12-25T06:33:35.287Z,94.93
2018-12-25T06:34:35.177Z,95.21
2018-12-25T06:35:35.119Z,95.40
2018-12-25T06:36:35.056Z,95.78
2018-12-25T06:37:34.997Z,95.97
2018-12-25T06:38:34.980Z,95.78
2018-12-25T06:39:34.952Z,95.78
2018-12-25T06:40:34.820Z,95.69
2018-12-25T06:41:34.761Z,95.69
2018-12-25T06:42:34.698Z,95.31
2018-12-25T06:43:34.677Z,95.03
2018-12-25T06:44:34.578Z,95.03
2018-12-25T06:45:34.516Z,95.69
2018-12-25T06:46:34.459Z,95.88
2018-12-25T06:47:34.431Z,95.88
2018-12-25T06:48:34.340Z,95.78
2018-12-25T06:49:34.311Z,95.97
2018-12-25T06:50:34.223Z,97.67
2018-12-25T06:51:34.160Z,98.43
2018-12-25T06:52:34.098Z,98.81
2018-12-25T06:53:34.074Z,98.71
2018-12-25T06:54:34.009Z,98.62
2018-12-25T06:55:33.919Z,98.24
2018-12-25T06:56:33.860Z,97.77
2018-12-25T06:57:33.800Z,98.24
2018-12-25T06:58:33.751Z,98.43
2018-12-25T06:59:33.712Z,98.52
2018-12-25T07:00:33.622Z,98.24
2018-12-25T07:01:33.562Z,97.86
2018-12-25T07:02:33.533Z,97.20
2018-12-25T07:03:33.473Z,97.20
2018-12-25T07:04:33.381Z,96.92
2018-12-25T07:05:33.322Z,96.45
2018-12-25T07:06:33.294Z,96.64
2018-12-25T07:07:33.203Z,95.88
2018-12-25T07:08:33.175Z,95.88
2018-12-25T07:09:33.087Z,95.40
2018-12-25T07:10:33.021Z,95.59
2018-12-25T07:11:32.966Z,95.59
2018-12-25T07:12:32.935Z,95.78
2018-12-25T07:13:32.846Z,95.78
2018-12-25T07:14:32.785Z,95.21
2018-12-25T07:15:33.364Z,95.78
2018-12-25T07:16:32.665Z,95.78
2018-12-25T07:17:32.603Z,95.97
2018-12-25T07:18:32.546Z,95.69
2018-12-25T07:19:32.525Z,94.93
2018-12-25T07:20:32.424Z,95.12
2018-12-25T07:21:32.371Z,94.37
2018-12-25T07:22:32.305Z,94.74
2018-12-25T07:23:32.254Z,95.03
2018-12-25T07:24:32.219Z,95.59
2018-12-25T07:25:32.131Z,95.78
2018-12-25T07:26:32.072Z,95.88
2018-12-25T07:27:32.165Z,96.16
2018-12-25T07:28:31.945Z,96.35
2018-12-25T07:29:31.924Z,96.83
2018-12-25T07:30:31.838Z,97.58
2018-12-25T07:31:31.768Z,97.39
2018-12-25T07:32:31.716Z,98.43
2018-12-25T07:33:31.652Z,99.99
2018-12-25T07:34:31.627Z,99.99
2018-12-25T07:35:31.530Z,99.99
2018-12-25T07:36:31.500Z,99.99
2018-12-25T07:37:31.415Z,99.99
2018-12-25T07:38:31.352Z,99.99
2018-12-25T07:39:31.325Z,99.99
2018-12-25T07:40:31.235Z,99.99
2018-12-25T07:41:32.998Z,99.99
2018-12-25T07:42:31.129Z,99.09
2018-12-25T07:43:31.061Z,99.19
2018-12-25T07:44:31.029Z,99.09
2018-12-25T07:45:30.939Z,99.99
2018-12-25T07:46:30.873Z,99.76
2018-12-25T07:47:30.815Z,99.99
2018-12-25T07:48:30.754Z,99.99
2018-12-25T07:49:30.729Z,99.99
2018-12-25T07:50:30.631Z,99.99
2018-12-25T07:51:30.573Z,99.99
2018-12-25T07:52:30.523Z,99.99
2018-12-25T07:53:30.455Z,99.99
2018-12-25T07:54:30.428Z,99.99
2018-12-25T07:55:30.337Z,99.99
2018-12-25T07:56:30.275Z,99.99
2018-12-25T07:57:30.217Z,99.99
2018-12-25T07:58:30.161Z,99.99
2018-12-25T07:59:30.134Z,99.99
2018-12-25T08:00:30.038Z,99.99
2018-12-25T08:01:29.980Z,99.99
2018-12-25T08:02:29.919Z,99.99
2018-12-25T08:03:29.860Z,99.99
2018-12-25T08:04:29.825Z,99.99
2018-12-25T08:05:29.745Z,99.99
2018-12-25T08:06:29.682Z,99.99
2018-12-25T08:07:29.623Z,99.99
2018-12-25T08:08:29.619Z,99.99
2018-12-25T08:09:29.500Z,99.99
2018-12-25T08:10:29.446Z,99.99
2018-12-25T08:11:29.427Z,99.99
2018-12-25T08:12:29.331Z,99.99
2018-12-25T08:13:29.267Z,99.99
2018-12-25T08:14:29.203Z,99.99
2018-12-25T08:15:29.147Z,99.99
2018-12-25T08:16:29.115Z,99.99
2018-12-25T08:17:29.027Z,99.99
2018-12-25T08:18:28.992Z,99.99
2018-12-25T08:19:28.914Z,99.99
2018-12-25T08:20:28.847Z,99.99
2018-12-25T08:21:29.376Z,99.99
2018-12-25T08:22:28.733Z,99.99
2018-12-25T08:23:28.675Z,99.99
2018-12-25T08:24:28.615Z,99.99
2018-12-25T08:25:28.552Z,99.99
2018-12-25T08:26:28.524Z,99.99
2018-12-25T08:27:28.439Z,99.99
2018-12-25T08:28:28.373Z,99.99
2018-12-25T08:29:28.322Z,99.99
2018-12-25T08:30:28.257Z,99.99
2018-12-25T08:31:28.232Z,99.99
2018-12-25T08:32:28.137Z,99.99
2018-12-25T08:33:28.079Z,99.99
2018-12-25T08:34:28.016Z,99.99
2018-12-25T08:35:28.120Z,99.99
2018-12-25T08:36:27.947Z,99.99
2018-12-25T08:37:27.843Z,99.99
2018-12-25T08:38:27.781Z,99.99
2018-12-25T08:39:27.788Z,99.99
2018-12-25T08:40:27.685Z,99.99
2018-12-25T08:41:27.602Z,99.99
2018-12-25T08:42:27.550Z,99.99
2018-12-25T08:43:27.491Z,99.99
2018-12-25T08:44:27.467Z,99.99
2018-12-25T08:45:27.364Z,99.99
2018-12-25T08:46:27.313Z,99.99
2018-12-25T08:47:27.250Z,99.99
2018-12-25T08:48:27.183Z,99.99
2018-12-25T08:49:27.158Z,99.99
2018-12-25T08:50:27.081Z,99.99
2018-12-25T08:51:27.008Z,99.99
2018-12-25T08:52:26.962Z,99.99
2018-12-25T08:53:26.888Z,99.99
2018-12-25T08:54:26.867Z,99.99
2018-12-25T08:55:26.772Z,99.99
2018-12-25T08:56:26.709Z,99.99
2018-12-25T08:57:26.651Z,99.99
2018-12-25T08:58:26.592Z,99.99
2018-12-25T08:59:26.567Z,99.99
2018-12-25T09:00:26.472Z,99.99
2018-12-25T09:01:26.417Z,99.99
2018-12-25T09:02:26.387Z,99.99
2018-12-25T09:03:26.296Z,99.99
2018-12-25T09:04:26.984Z,99.99
2018-12-25T09:05:26.191Z,99.99
2018-12-25T09:06:26.181Z,99.99
2018-12-25T09:07:26.057Z,99.99
2018-12-25T09:08:34.556Z,99.99
2018-12-25T09:09:25.943Z,99.99
2018-12-25T09:10:25.883Z,99.99
2018-12-25T09:11:25.858Z,99.99
2018-12-25T09:12:25.765Z,99.99
2018-12-25T09:13:25.709Z,99.99
2018-12-25T09:14:25.643Z,99.99
2018-12-25T09:15:25.693Z,99.99
2018-12-25T09:16:25.527Z,99.99
2018-12-25T09:17:25.469Z,99.99
2018-12-25T09:18:25.453Z,99.99
2018-12-25T09:19:25.352Z,99.99
2018-12-25T09:20:25.318Z,99.99
2018-12-25T09:21:25.231Z,99.99
2018-12-25T09:22:25.174Z,99.99
2018-12-25T09:23:25.113Z,99.99
2018-12-25T09:24:25.084Z,99.99
2018-12-25T09:25:24.995Z,99.99
2018-12-25T09:26:24.942Z,99.99
2018-12-25T09:27:24.925Z,99.99
2018-12-25T09:28:24.814Z,99.99
2018-12-25T09:29:24.796Z,99.99
2018-12-25T09:30:24.698Z,99.99
2018-12-25T09:31:24.639Z,99.99
2018-12-25T09:32:24.580Z,99.99
2018-12-25T09:33:24.522Z,99.99
2018-12-25T09:34:24.493Z,99.99
2018-12-25T09:35:24.449Z,99.99
2018-12-25T09:36:24.513Z,99.99
2018-12-25T09:37:24.283Z,99.99
2018-12-25T09:38:24.225Z,99.99
2018-12-25T09:39:24.166Z,99.99
2018-12-25T09:40:24.137Z,99.99
2018-12-25T09:41:24.083Z,99.99
2018-12-25T09:42:23.988Z,99.99
2018-12-25T09:43:23.936Z,99.99
2018-12-25T09:44:23.875Z,99.99
2018-12-25T09:45:23.817Z,99.99
2018-12-25T09:46:23.784Z,99.99
2018-12-25T09:47:23.704Z,99.99
2018-12-25T09:48:23.635Z,99.99
2018-12-25T09:49:23.577Z,99.99
2018-12-25T09:50:23.526Z,99.99
2018-12-25T09:51:23.500Z,99.99
2018-12-25T09:52:23.406Z,99.99
2018-12-25T09:53:23.341Z,99.99
2018-12-25T09:54:23.287Z,99.99
2018-12-25T09:55:23.227Z,99.99
2018-12-25T09:56:23.208Z,99.99
2018-12-25T09:57:23.114Z,99.99
2018-12-25T09:58:23.047Z,99.99
2018-12-25T09:59:22.991Z,99.99
2018-12-25T10:00:22.959Z,99.99
2018-12-25T10:01:22.871Z,99.99
2018-12-25T10:02:22.842Z,99.99
2018-12-25T10:03:22.754Z,99.99
2018-12-25T10:04:22.692Z,99.99
2018-12-25T10:05:22.637Z,99.99
2018-12-25T10:06:22.587Z,99.99
2018-12-25T10:07:23.321Z,99.99
2018-12-25T10:08:22.482Z,99.99
2018-12-25T10:09:22.404Z,99.99
2018-12-25T10:10:22.342Z,99.99
2018-12-25T10:11:23.725Z,99.99
2018-12-25T10:12:22.264Z,99.99
2018-12-25T10:13:22.165Z,99.99
2018-12-25T10:14:22.106Z,99.99
2018-12-25T10:15:22.048Z,99.99
2018-12-25T10:16:21.989Z,99.99
2018-12-25T10:17:21.976Z,99.99
2018-12-25T10:18:21.879Z,99.99
2018-12-25T10:19:21.814Z,99.99
2018-12-25T10:20:21.758Z,99.99
2018-12-25T10:21:21.697Z,99.99
2018-12-25T10:22:21.683Z,99.99
2018-12-25T10:23:21.586Z,99.99
2018-12-25T10:24:21.517Z,99.99
2018-12-25T10:25:21.467Z,99.99
2018-12-25T10:26:21.404Z,99.99
2018-12-25T10:27:21.380Z,99.99
2018-12-25T10:28:21.285Z,99.99
2018-12-25T10:29:21.227Z,99.99
2018-12-25T10:30:21.173Z,99.99
2018-12-25T10:31:21.129Z,99.99
2018-12-25T10:32:21.088Z,99.99
2018-12-25T10:33:20.994Z,99.99
2018-12-25T10:34:20.942Z,99.99
2018-12-25T10:35:20.989Z,99.99
2018-12-25T10:36:20.829Z,99.99
2018-12-25T10:37:20.760Z,99.99
2018-12-25T10:38:20.741Z,99.99
2018-12-25T10:39:20.643Z,99.99
2018-12-25T10:40:20.593Z,99.99
2018-12-25T10:41:20.522Z,99.99
2018-12-25T10:42:20.462Z,99.99
2018-12-25T10:43:20.439Z,99.99
2018-12-25T10:44:20.346Z,99.99
2018-12-25T10:45:20.318Z,99.99
2018-12-25T10:46:20.230Z,99.99
2018-12-25T10:47:20.193Z,99.99
2018-12-25T10:48:20.111Z,99.99
2018-12-25T10:49:20.050Z,99.99
2018-12-25T10:50:20.032Z,99.99
2018-12-25T10:51:19.936Z,99.99
2018-12-25T10:52:19.892Z,99.99
2018-12-25T10:53:19.864Z,99.99
2018-12-25T10:54:19.764Z,99.99
2018-12-25T10:55:19.703Z,99.99
2018-12-25T10:56:19.644Z,99.99
2018-12-25T10:57:19.585Z,99.99
2018-12-25T10:58:19.567Z,99.99
2018-12-25T10:59:19.470Z,99.99
2018-12-25T11:00:19.407Z,99.99
2018-12-25T11:01:19.355Z,99.99
2018-12-25T11:02:19.324Z,99.99
2018-12-25T11:03:19.235Z,99.99
2018-12-25T11:04:19.181Z,99.99
2018-12-25T11:05:19.150Z,99.99
2018-12-25T11:06:19.058Z,99.99
2018-12-25T11:07:19.002Z,99.99
2018-12-25T11:08:18.940Z,99.99
2018-12-25T11:09:18.914Z,99.99
2018-12-25T11:10:18.825Z,99.99
2018-12-25T11:11:18.767Z,99.99
2018-12-25T11:12:18.708Z,99.99
2018-12-25T11:13:18.649Z,99.99
2018-12-25T11:14:18.630Z,99.99
2018-12-25T11:15:18.548Z,99.99
2018-12-25T11:16:18.478Z,99.99
2018-12-25T11:17:18.423Z,99.99
2018-12-25T11:18:18.360Z,99.99
2018-12-25T11:19:18.345Z,99.99
2018-12-25T11:20:18.248Z,99.99
2018-12-25T11:21:18.196Z,99.99
2018-12-25T11:22:19.990Z,99.99
2018-12-25T11:23:18.080Z,99.99
2018-12-25T11:24:18.045Z,99.99
2018-12-25T11:25:17.955Z,99.99
2018-12-25T11:26:17.989Z,99.99
2018-12-25T11:27:17.839Z,99.99
2018-12-25T11:28:17.781Z,99.99
2018-12-25T11:29:17.758Z,99.99
2018-12-25T11:30:17.663Z,99.99
2018-12-25T11:31:17.653Z,99.99
2018-12-25T11:32:17.588Z,99.99
2018-12-25T11:33:17.489Z,99.99
2018-12-25T11:34:17.441Z,99.99
2018-12-25T11:35:17.414Z,99.99
2018-12-25T11:36:17.360Z,99.99
2018-12-25T11:37:17.266Z,99.99
2018-12-25T11:38:17.201Z,99.99
2018-12-25T11:39:17.148Z,99.99
2018-12-25T11:40:17.086Z,99.99
2018-12-25T11:41:17.068Z,99.99
2018-12-25T11:42:16.967Z,99.99
2018-12-25T11:43:16.920Z,99.99
2018-12-25T11:44:16.855Z,99.99
2018-12-25T11:45:16.799Z,99.99
2018-12-25T11:46:16.779Z,99.99
2018-12-25T11:47:16.679Z,99.99
2018-12-25T11:48:16.622Z,99.99
2018-12-25T11:49:16.561Z,99.99
2018-12-25T11:50:16.508Z,99.99
2018-12-25T11:51:16.478Z,99.99
2018-12-25T11:52:16.426Z,99.99
2018-12-25T11:53:16.327Z,99.99
2018-12-25T11:54:16.275Z,99.99
2018-12-25T11:55:16.219Z,99.99
2018-12-25T11:56:16.160Z,99.99
2018-12-25T11:57:16.132Z,99.99
2018-12-25T11:58:16.041Z,99.99
2018-12-25T11:59:15.986Z,99.99
2018-12-25T12:00:15.962Z,99.99
2018-12-25T12:01:15.866Z,99.99
2018-12-25T12:02:17.199Z,99.99
2018-12-25T12:03:15.746Z,99.99
2018-12-25T12:04:15.692Z,99.99
2018-12-25T12:05:15.676Z,99.99
2018-12-25T12:06:15.574Z,99.99
2018-12-25T12:07:15.522Z,99.99
2018-12-25T12:08:15.459Z,99.99
2018-12-25T12:09:15.403Z,99.99
2018-12-25T12:10:15.381Z,99.99
2018-12-25T12:11:15.285Z,99.99
2018-12-25T12:12:15.228Z,99.99
2018-12-25T12:13:15.204Z,99.99
2018-12-25T12:14:15.107Z,99.99
2018-12-25T12:15:15.093Z,99.99
2018-12-25T12:16:14.996Z,99.99
2018-12-25T12:17:14.935Z,99.99
2018-12-25T12:18:14.879Z,99.99
2018-12-25T12:19:14.857Z,99.99
2018-12-25T12:20:14.768Z,99.99
2018-12-25T12:21:14.702Z,99.99
2018-12-25T12:22:14.643Z,99.99
2018-12-25T12:23:14.587Z,99.99
2018-12-25T12:24:14.558Z,99.99
2018-12-25T12:25:14.472Z,99.99
2018-12-25T12:26:14.411Z,99.99
2018-12-25T12:27:14.404Z,99.99
2018-12-25T12:28:14.303Z,99.99
2018-12-25T12:29:14.244Z,99.99
2018-12-25T12:30:14.184Z,99.99
2018-12-25T12:31:14.122Z,99.99
2018-12-25T12:32:14.102Z,99.99
2018-12-25T12:33:15.575Z,99.99
2018-12-25T12:34:13.948Z,99.99
2018-12-25T12:35:13.893Z,99.99
2018-12-25T12:36:13.831Z,99.99
2018-12-25T12:37:13.802Z,99.99
2018-12-25T12:38:13.717Z,99.99
2018-12-25T12:39:13.690Z,99.99
2018-12-25T12:40:13.600Z,99.99
2018-12-25T12:41:13.542Z,99.99
2018-12-25T12:42:13.483Z,99.99
2018-12-25T12:43:13.424Z,99.99
2018-12-25T12:44:13.398Z,99.99
2018-12-25T12:45:13.308Z,99.99
2018-12-25T12:46:13.251Z,99.99
2018-12-25T12:47:13.225Z,99.99
2018-12-25T12:48:13.134Z,99.99
2018-12-25T12:49:13.082Z,99.99
2018-12-25T12:50:13.050Z,99.99
2018-12-25T12:51:12.960Z,99.99
2018-12-25T12:52:12.904Z,99.99